sensor_id;sensor_type;location;lat;lon;timestamp;P1;durP1;ratioP1;P2;durP2;ratioP2
75716;SDS011;64333;50.138;14.332;2023-04-06T00:02:20;13.40;;;9.03;;
75716;SDS011;64333;50.138;14.332;2023-04-06T00:04:46;12.60;;;7.57;;
75716;SDS011;64333;50.138;14.332;2023-04-06T00:07:11;11.80;;;8.27;;
75716;SDS011;64333;50.138;14.332;2023-04-06T00:09:36;9.90;;;8.17;;
75716;SDS011;64333;50.138;14.332;2023-04-06T00:12:01;14.77;;;8.90;;
75716;SDS011;64333;50.138;14.332;2023-04-06T00:14:26;13.53;;;8.97;;
75716;SDS011;64333;50.138;14.332;2023-04-06T00:16:52;16.50;;;8.83;;
75716;SDS011;64333;50.138;14.332;2023-04-06T00:19:17;13.60;;;9.00;;
75716;SDS011;64333;50.138;14.332;2023-04-06T00:21:42;12.00;;;8.07;;
75716;SDS011;64333;50.138;14.332;2023-04-06T00:24:07;10.67;;;7.60;;
75716;SDS011;64333;50.138;14.332;2023-04-06T00:26:33;12.97;;;7.83;;
75716;SDS011;64333;50.138;14.332;2023-04-06T00:28:58;10.23;;;7.77;;
75716;SDS011;64333;50.138;14.332;2023-04-06T00:31:24;11.30;;;8.30;;
75716;SDS011;64333;50.138;14.332;2023-04-06T00:33:49;12.75;;;8.50;;
75716;SDS011;64333;50.138;14.332;2023-04-06T00:36:14;12.52;;;8.85;;
75716;SDS011;64333;50.138;14.332;2023-04-06T00:38:40;9.93;;;7.83;;
75716;SDS011;64333;50.138;14.332;2023-04-06T00:41:05;14.07;;;7.80;;
75716;SDS011;64333;50.138;14.332;2023-04-06T00:43:31;13.50;;;7.00;;
75716;SDS011;64333;50.138;14.332;2023-04-06T00:45:56;12.95;;;8.80;;
75716;SDS011;64333;50.138;14.332;2023-04-06T00:48:21;9.00;;;7.00;;
75716;SDS011;64333;50.138;14.332;2023-04-06T00:50:46;10.90;;;7.53;;
75716;SDS011;64333;50.138;14.332;2023-04-06T00:53:12;13.33;;;8.97;;
75716;SDS011;64333;50.138;14.332;2023-04-06T00:55:38;12.73;;;8.83;;
75716;SDS011;64333;50.138;14.332;2023-04-06T00:58:03;13.85;;;8.27;;
75716;SDS011;64333;50.138;14.332;2023-04-06T01:00:29;11.90;;;8.23;;
75716;SDS011;64333;50.138;14.332;2023-04-06T01:02:54;14.57;;;8.68;;
75716;SDS011;64333;50.138;14.332;2023-04-06T01:05:19;19.83;;;12.18;;
75716;SDS011;64333;50.138;14.332;2023-04-06T01:07:45;23.20;;;12.02;;
75716;SDS011;64333;50.138;14.332;2023-04-06T01:10:10;16.15;;;9.85;;
75716;SDS011;64333;50.138;14.332;2023-04-06T01:12:36;12.40;;;7.88;;
75716;SDS011;64333;50.138;14.332;2023-04-06T01:15:02;11.32;;;8.00;;
75716;SDS011;64333;50.138;14.332;2023-04-06T01:17:28;9.52;;;6.65;;
75716;SDS011;64333;50.138;14.332;2023-04-06T01:19:53;11.60;;;7.40;;
75716;SDS011;64333;50.138;14.332;2023-04-06T01:22:19;8.60;;;6.60;;
75716;SDS011;64333;50.138;14.332;2023-04-06T01:24:44;10.82;;;7.05;;
75716;SDS011;64333;50.138;14.332;2023-04-06T01:27:10;9.98;;;7.45;;
75716;SDS011;64333;50.138;14.332;2023-04-06T01:29:35;9.15;;;6.78;;
75716;SDS011;64333;50.138;14.332;2023-04-06T01:32:00;12.55;;;6.55;;
75716;SDS011;64333;50.138;14.332;2023-04-06T01:34:26;9.30;;;7.22;;
75716;SDS011;64333;50.138;14.332;2023-04-06T01:36:51;7.85;;;6.32;;
75716;SDS011;64333;50.138;14.332;2023-04-06T01:39:16;10.40;;;7.43;;
75716;SDS011;64333;50.138;14.332;2023-04-06T01:41:41;6.20;;;4.93;;
75716;SDS011;64333;50.138;14.332;2023-04-06T01:44:07;6.33;;;5.60;;
75716;SDS011;64333;50.138;14.332;2023-04-06T01:46:32;8.90;;;6.10;;
75716;SDS011;64333;50.138;14.332;2023-04-06T01:48:57;8.43;;;6.57;;
75716;SDS011;64333;50.138;14.332;2023-04-06T01:51:22;10.17;;;7.20;;
75716;SDS011;64333;50.138;14.332;2023-04-06T01:53:49;10.25;;;6.65;;
75716;SDS011;64333;50.138;14.332;2023-04-06T01:56:14;8.37;;;6.30;;
75716;SDS011;64333;50.138;14.332;2023-04-06T01:58:39;7.53;;;5.80;;
75716;SDS011;64333;50.138;14.332;2023-04-06T02:01:05;9.67;;;5.67;;
75716;SDS011;64333;50.138;14.332;2023-04-06T02:03:30;8.57;;;6.20;;
75716;SDS011;64333;50.138;14.332;2023-04-06T02:05:56;10.00;;;5.72;;
75716;SDS011;64333;50.138;14.332;2023-04-06T02:08:21;6.20;;;5.60;;
75716;SDS011;64333;50.138;14.332;2023-04-06T02:10:46;7.43;;;5.33;;
75716;SDS011;64333;50.138;14.332;2023-04-06T02:13:12;8.70;;;6.40;;
75716;SDS011;64333;50.138;14.332;2023-04-06T02:15:37;10.40;;;6.37;;
75716;SDS011;64333;50.138;14.332;2023-04-06T02:18:02;8.30;;;5.77;;
75716;SDS011;64333;50.138;14.332;2023-04-06T02:20:27;8.73;;;5.25;;
75716;SDS011;64333;50.138;14.332;2023-04-06T02:22:53;6.57;;;5.40;;
75716;SDS011;64333;50.138;14.332;2023-04-06T02:25:18;9.73;;;6.13;;
75716;SDS011;64333;50.138;14.332;2023-04-06T02:27:43;7.40;;;5.10;;
75716;SDS011;64333;50.138;14.332;2023-04-06T02:30:08;9.13;;;6.03;;
75716;SDS011;64333;50.138;14.332;2023-04-06T02:32:34;8.68;;;5.45;;
75716;SDS011;64333;50.138;14.332;2023-04-06T02:34:59;8.88;;;6.15;;
75716;SDS011;64333;50.138;14.332;2023-04-06T02:37:25;8.68;;;6.20;;
75716;SDS011;64333;50.138;14.332;2023-04-06T02:39:50;8.20;;;6.03;;
75716;SDS011;64333;50.138;14.332;2023-04-06T02:42:16;6.90;;;5.43;;
75716;SDS011;64333;50.138;14.332;2023-04-06T02:44:41;7.88;;;5.45;;
75716;SDS011;64333;50.138;14.332;2023-04-06T02:47:06;10.55;;;6.00;;
75716;SDS011;64333;50.138;14.332;2023-04-06T02:49:32;9.27;;;6.50;;
75716;SDS011;64333;50.138;14.332;2023-04-06T02:51:57;13.57;;;7.30;;
75716;SDS011;64333;50.138;14.332;2023-04-06T02:54:22;7.90;;;5.30;;
75716;SDS011;64333;50.138;14.332;2023-04-06T02:56:47;10.00;;;6.63;;
75716;SDS011;64333;50.138;14.332;2023-04-06T02:59:13;13.20;;;7.17;;
75716;SDS011;64333;50.138;14.332;2023-04-06T03:01:38;12.10;;;7.23;;
75716;SDS011;64333;50.138;14.332;2023-04-06T03:04:03;9.40;;;6.57;;
75716;SDS011;64333;50.138;14.332;2023-04-06T03:06:28;13.10;;;7.43;;
75716;SDS011;64333;50.138;14.332;2023-04-06T03:08:54;9.30;;;7.73;;
75716;SDS011;64333;50.138;14.332;2023-04-06T03:11:19;12.15;;;7.18;;
75716;SDS011;64333;50.138;14.332;2023-04-06T03:13:45;9.98;;;6.60;;
75716;SDS011;64333;50.138;14.332;2023-04-06T03:16:10;11.40;;;7.57;;
75716;SDS011;64333;50.138;14.332;2023-04-06T03:18:36;12.17;;;9.13;;
75716;SDS011;64333;50.138;14.332;2023-04-06T03:21:01;12.87;;;8.70;;
75716;SDS011;64333;50.138;14.332;2023-04-06T03:23:26;13.60;;;9.67;;
75716;SDS011;64333;50.138;14.332;2023-04-06T03:25:51;14.07;;;9.03;;
75716;SDS011;64333;50.138;14.332;2023-04-06T03:28:17;15.33;;;10.67;;
75716;SDS011;64333;50.138;14.332;2023-04-06T03:30:42;15.13;;;10.13;;
75716;SDS011;64333;50.138;14.332;2023-04-06T03:33:07;15.03;;;9.90;;
75716;SDS011;64333;50.138;14.332;2023-04-06T03:35:32;17.63;;;10.00;;
75716;SDS011;64333;50.138;14.332;2023-04-06T03:37:57;14.13;;;10.70;;
75716;SDS011;64333;50.138;14.332;2023-04-06T03:40:23;18.80;;;11.05;;
75716;SDS011;64333;50.138;14.332;2023-04-06T03:42:48;14.47;;;9.70;;
75716;SDS011;64333;50.138;14.332;2023-04-06T03:45:13;14.65;;;9.40;;
75716;SDS011;64333;50.138;14.332;2023-04-06T03:47:39;14.90;;;9.70;;
75716;SDS011;64333;50.138;14.332;2023-04-06T03:50:04;15.48;;;10.18;;
75716;SDS011;64333;50.138;14.332;2023-04-06T03:52:30;15.10;;;10.18;;
75716;SDS011;64333;50.138;14.332;2023-04-06T03:54:55;16.52;;;9.82;;
75716;SDS011;64333;50.138;14.332;2023-04-06T03:57:20;15.20;;;10.67;;
75716;SDS011;64333;50.138;14.332;2023-04-06T03:59:45;15.73;;;10.03;;
75716;SDS011;64333;50.138;14.332;2023-04-06T04:02:11;15.70;;;10.17;;
75716;SDS011;64333;50.138;14.332;2023-04-06T04:04:36;12.33;;;8.43;;
75716;SDS011;64333;50.138;14.332;2023-04-06T04:07:01;11.47;;;9.07;;
75716;SDS011;64333;50.138;14.332;2023-04-06T04:09:26;12.50;;;8.60;;
75716;SDS011;64333;50.138;14.332;2023-04-06T04:11:51;15.88;;;9.30;;
75716;SDS011;64333;50.138;14.332;2023-04-06T04:14:17;13.70;;;9.87;;
75716;SDS011;64333;50.138;14.332;2023-04-06T04:16:42;12.37;;;8.17;;
75716;SDS011;64333;50.138;14.332;2023-04-06T04:19:07;13.33;;;8.20;;
75716;SDS011;64333;50.138;14.332;2023-04-06T04:21:33;10.50;;;7.32;;
75716;SDS011;64333;50.138;14.332;2023-04-06T04:23:58;12.47;;;7.53;;
75716;SDS011;64333;50.138;14.332;2023-04-06T04:26:23;11.20;;;6.53;;
75716;SDS011;64333;50.138;14.332;2023-04-06T04:28:48;9.63;;;6.43;;
75716;SDS011;64333;50.138;14.332;2023-04-06T04:31:13;9.77;;;6.30;;
75716;SDS011;64333;50.138;14.332;2023-04-06T04:33:39;6.75;;;5.40;;
75716;SDS011;64333;50.138;14.332;2023-04-06T04:36:04;8.55;;;6.65;;
75716;SDS011;64333;50.138;14.332;2023-04-06T04:38:30;8.88;;;6.68;;
75716;SDS011;64333;50.138;14.332;2023-04-06T04:40:55;8.53;;;6.27;;
75716;SDS011;64333;50.138;14.332;2023-04-06T04:43:20;10.15;;;6.43;;
75716;SDS011;64333;50.138;14.332;2023-04-06T04:45:46;8.50;;;5.60;;
75716;SDS011;64333;50.138;14.332;2023-04-06T04:48:11;10.10;;;6.97;;
75716;SDS011;64333;50.138;14.332;2023-04-06T04:50:36;10.97;;;7.13;;
75716;SDS011;64333;50.138;14.332;2023-04-06T04:53:01;14.73;;;10.00;;
75716;SDS011;64333;50.138;14.332;2023-04-06T04:55:27;14.63;;;10.50;;
75716;SDS011;64333;50.138;14.332;2023-04-06T04:57:52;20.92;;;11.63;;
75716;SDS011;64333;50.138;14.332;2023-04-06T05:00:18;21.80;;;12.93;;
75716;SDS011;64333;50.138;14.332;2023-04-06T05:02:43;18.38;;;11.50;;
75716;SDS011;64333;50.138;14.332;2023-04-06T05:05:31;20.58;;;11.50;;
75716;SDS011;64333;50.138;14.332;2023-04-06T05:07:57;20.15;;;11.60;;
75716;SDS011;64333;50.138;14.332;2023-04-06T05:10:22;22.03;;;14.53;;
75716;SDS011;64333;50.138;14.332;2023-04-06T05:12:47;19.90;;;12.98;;
75716;SDS011;64333;50.138;14.332;2023-04-06T05:15:13;21.75;;;14.00;;
75716;SDS011;64333;50.138;14.332;2023-04-06T05:17:38;15.70;;;11.30;;
75716;SDS011;64333;50.138;14.332;2023-04-06T05:20:04;16.27;;;9.93;;
75716;SDS011;64333;50.138;14.332;2023-04-06T05:22:30;23.17;;;15.63;;
75716;SDS011;64333;50.138;14.332;2023-04-06T05:24:55;17.13;;;11.80;;
75716;SDS011;64333;50.138;14.332;2023-04-06T05:27:20;18.23;;;11.43;;
75716;SDS011;64333;50.138;14.332;2023-04-06T05:29:45;16.60;;;11.30;;
75716;SDS011;64333;50.138;14.332;2023-04-06T05:32:11;20.87;;;10.73;;
75716;SDS011;64333;50.138;14.332;2023-04-06T05:34:36;14.48;;;10.45;;
75716;SDS011;64333;50.138;14.332;2023-04-06T05:37:01;17.73;;;11.15;;
75716;SDS011;64333;50.138;14.332;2023-04-06T05:39:27;18.27;;;11.00;;
75716;SDS011;64333;50.138;14.332;2023-04-06T05:41:52;14.93;;;10.30;;
75716;SDS011;64333;50.138;14.332;2023-04-06T05:44:17;16.13;;;10.57;;
75716;SDS011;64333;50.138;14.332;2023-04-06T05:46:42;17.17;;;11.13;;
75716;SDS011;64333;50.138;14.332;2023-04-06T05:49:07;18.43;;;10.40;;
75716;SDS011;64333;50.138;14.332;2023-04-06T05:51:33;13.33;;;9.53;;
75716;SDS011;64333;50.138;14.332;2023-04-06T05:53:58;15.43;;;9.83;;
75716;SDS011;64333;50.138;14.332;2023-04-06T05:56:24;12.43;;;9.95;;
75716;SDS011;64333;50.138;14.332;2023-04-06T05:58:50;15.88;;;9.98;;
75716;SDS011;64333;50.138;14.332;2023-04-06T06:01:15;15.85;;;10.00;;
75716;SDS011;64333;50.138;14.332;2023-04-06T06:03:40;13.80;;;9.80;;
75716;SDS011;64333;50.138;14.332;2023-04-06T06:06:05;14.23;;;9.63;;
75716;SDS011;64333;50.138;14.332;2023-04-06T06:08:31;14.20;;;9.98;;
75716;SDS011;64333;50.138;14.332;2023-04-06T06:10:56;14.23;;;8.20;;
75716;SDS011;64333;50.138;14.332;2023-04-06T06:13:22;13.45;;;9.45;;
75716;SDS011;64333;50.138;14.332;2023-04-06T06:15:48;13.65;;;10.07;;
75716;SDS011;64333;50.138;14.332;2023-04-06T06:18:13;14.15;;;9.90;;
75716;SDS011;64333;50.138;14.332;2023-04-06T06:20:38;14.73;;;10.17;;
75716;SDS011;64333;50.138;14.332;2023-04-06T06:23:03;15.73;;;9.60;;
75716;SDS011;64333;50.138;14.332;2023-04-06T06:25:29;15.53;;;9.13;;
75716;SDS011;64333;50.138;14.332;2023-04-06T06:27:56;14.40;;;8.65;;
75716;SDS011;64333;50.138;14.332;2023-04-06T06:30:21;12.95;;;8.50;;
75716;SDS011;64333;50.138;14.332;2023-04-06T06:32:46;14.13;;;10.70;;
75716;SDS011;64333;50.138;14.332;2023-04-06T06:35:12;17.97;;;12.77;;
75716;SDS011;64333;50.138;14.332;2023-04-06T06:37:37;20.37;;;12.13;;
75716;SDS011;64333;50.138;14.332;2023-04-06T06:40:02;12.03;;;10.37;;
75716;SDS011;64333;50.138;14.332;2023-04-06T06:42:27;17.90;;;11.43;;
75716;SDS011;64333;50.138;14.332;2023-04-06T06:44:53;15.53;;;11.03;;
75716;SDS011;64333;50.138;14.332;2023-04-06T06:47:18;13.18;;;10.25;;
75716;SDS011;64333;50.138;14.332;2023-04-06T06:49:44;15.00;;;11.13;;
75716;SDS011;64333;50.138;14.332;2023-04-06T06:52:09;16.70;;;12.60;;
75716;SDS011;64333;50.138;14.332;2023-04-06T06:54:34;17.73;;;11.83;;
75716;SDS011;64333;50.138;14.332;2023-04-06T06:57:00;15.98;;;10.93;;
75716;SDS011;64333;50.138;14.332;2023-04-06T06:59:25;15.88;;;10.75;;
75716;SDS011;64333;50.138;14.332;2023-04-06T07:01:50;17.53;;;12.77;;
75716;SDS011;64333;50.138;14.332;2023-04-06T07:04:15;18.93;;;13.97;;
75716;SDS011;64333;50.138;14.332;2023-04-06T07:06:41;21.73;;;13.27;;
75716;SDS011;64333;50.138;14.332;2023-04-06T07:09:06;17.63;;;12.73;;
75716;SDS011;64333;50.138;14.332;2023-04-06T07:11:31;17.80;;;11.70;;
75716;SDS011;64333;50.138;14.332;2023-04-06T07:13:56;16.13;;;11.73;;
75716;SDS011;64333;50.138;14.332;2023-04-06T07:16:22;16.23;;;10.97;;
75716;SDS011;64333;50.138;14.332;2023-04-06T07:18:47;16.63;;;10.90;;
75716;SDS011;64333;50.138;14.332;2023-04-06T07:21:12;13.55;;;10.60;;
75716;SDS011;64333;50.138;14.332;2023-04-06T07:23:38;14.63;;;11.35;;
75716;SDS011;64333;50.138;14.332;2023-04-06T07:26:03;11.77;;;9.88;;
75716;SDS011;64333;50.138;14.332;2023-04-06T07:28:28;16.80;;;11.32;;
75716;SDS011;64333;50.138;14.332;2023-04-06T07:30:53;13.10;;;11.02;;
75716;SDS011;64333;50.138;14.332;2023-04-06T07:33:19;15.32;;;10.57;;
75716;SDS011;64333;50.138;14.332;2023-04-06T07:35:44;13.90;;;10.50;;
75716;SDS011;64333;50.138;14.332;2023-04-06T07:38:10;13.60;;;10.90;;
75716;SDS011;64333;50.138;14.332;2023-04-06T07:40:35;14.73;;;10.70;;
75716;SDS011;64333;50.138;14.332;2023-04-06T07:43:00;22.17;;;14.43;;
75716;SDS011;64333;50.138;14.332;2023-04-06T07:45:27;13.50;;;10.65;;
75716;SDS011;64333;50.138;14.332;2023-04-06T07:47:52;15.50;;;10.05;;
75716;SDS011;64333;50.138;14.332;2023-04-06T07:50:17;13.50;;;10.30;;
75716;SDS011;64333;50.138;14.332;2023-04-06T07:52:43;13.93;;;10.15;;
75716;SDS011;64333;50.138;14.332;2023-04-06T07:55:08;14.30;;;10.83;;
75716;SDS011;64333;50.138;14.332;2023-04-06T07:57:33;15.55;;;10.70;;
75716;SDS011;64333;50.138;14.332;2023-04-06T07:59:58;11.10;;;9.63;;
75716;SDS011;64333;50.138;14.332;2023-04-06T08:02:24;12.35;;;9.95;;
75716;SDS011;64333;50.138;14.332;2023-04-06T08:04:49;15.07;;;8.90;;
75716;SDS011;64333;50.138;14.332;2023-04-06T08:07:14;11.50;;;8.90;;
75716;SDS011;64333;50.138;14.332;2023-04-06T08:09:40;11.20;;;8.40;;
75716;SDS011;64333;50.138;14.332;2023-04-06T08:12:06;10.75;;;8.00;;
75716;SDS011;64333;50.138;14.332;2023-04-06T08:14:32;9.60;;;8.68;;
75716;SDS011;64333;50.138;14.332;2023-04-06T08:16:57;12.30;;;9.30;;
75716;SDS011;64333;50.138;14.332;2023-04-06T08:19:22;10.63;;;8.23;;
75716;SDS011;64333;50.138;14.332;2023-04-06T08:21:47;8.20;;;7.25;;
75716;SDS011;64333;50.138;14.332;2023-04-06T08:24:13;8.67;;;6.90;;
75716;SDS011;64333;50.138;14.332;2023-04-06T08:26:40;8.40;;;6.38;;
75716;SDS011;64333;50.138;14.332;2023-04-06T08:29:06;10.50;;;7.55;;
75716;SDS011;64333;50.138;14.332;2023-04-06T08:31:34;8.82;;;7.00;;
75716;SDS011;64333;50.138;14.332;2023-04-06T08:34:00;9.32;;;7.82;;
75716;SDS011;64333;50.138;14.332;2023-04-06T08:36:25;9.48;;;6.93;;
75716;SDS011;64333;50.138;14.332;2023-04-06T08:38:50;9.60;;;7.17;;
75716;SDS011;64333;50.138;14.332;2023-04-06T08:41:16;7.88;;;6.13;;
75716;SDS011;64333;50.138;14.332;2023-04-06T08:43:47;8.40;;;5.93;;
75716;SDS011;64333;50.138;14.332;2023-04-06T08:46:13;8.30;;;6.88;;
75716;SDS011;64333;50.138;14.332;2023-04-06T08:48:39;8.05;;;6.50;;
75716;SDS011;64333;50.138;14.332;2023-04-06T08:51:05;8.55;;;7.03;;
75716;SDS011;64333;50.138;14.332;2023-04-06T08:53:30;8.43;;;7.03;;
75716;SDS011;64333;50.138;14.332;2023-04-06T08:55:56;8.80;;;7.13;;
75716;SDS011;64333;50.138;14.332;2023-04-06T08:58:22;7.22;;;5.93;;
75716;SDS011;64333;50.138;14.332;2023-04-06T09:00:48;7.85;;;6.95;;
75716;SDS011;64333;50.138;14.332;2023-04-06T09:03:14;8.38;;;6.40;;
75716;SDS011;64333;50.138;14.332;2023-04-06T09:05:40;10.73;;;7.20;;
75716;SDS011;64333;50.138;14.332;2023-04-06T09:08:05;8.20;;;6.43;;
75716;SDS011;64333;50.138;14.332;2023-04-06T09:10:31;7.57;;;6.00;;
75716;SDS011;64333;50.138;14.332;2023-04-06T09:13:04;7.60;;;6.47;;
75716;SDS011;64333;50.138;14.332;2023-04-06T09:15:29;8.65;;;6.57;;
75716;SDS011;64333;50.138;14.332;2023-04-06T09:17:54;7.90;;;5.83;;
75716;SDS011;64333;50.138;14.332;2023-04-06T09:20:23;9.48;;;7.03;;
75716;SDS011;64333;50.138;14.332;2023-04-06T09:22:51;7.85;;;6.03;;
75716;SDS011;64333;50.138;14.332;2023-04-06T09:25:20;8.33;;;6.03;;
75716;SDS011;64333;50.138;14.332;2023-04-06T09:27:57;7.57;;;6.03;;
75716;SDS011;64333;50.138;14.332;2023-04-06T09:30:22;6.18;;;5.03;;
75716;SDS011;64333;50.138;14.332;2023-04-06T09:32:50;8.07;;;5.22;;
75716;SDS011;64333;50.138;14.332;2023-04-06T09:35:16;4.93;;;4.43;;
75716;SDS011;64333;50.138;14.332;2023-04-06T09:37:42;6.40;;;4.97;;
75716;SDS011;64333;50.138;14.332;2023-04-06T09:40:08;7.25;;;5.32;;
75716;SDS011;64333;50.138;14.332;2023-04-06T09:42:34;6.35;;;5.50;;
75716;SDS011;64333;50.138;14.332;2023-04-06T09:45:00;5.93;;;5.43;;
75716;SDS011;64333;50.138;14.332;2023-04-06T09:47:25;5.03;;;4.47;;
75716;SDS011;64333;50.138;14.332;2023-04-06T09:49:55;5.65;;;3.78;;
75716;SDS011;64333;50.138;14.332;2023-04-06T09:52:20;5.30;;;4.80;;
75716;SDS011;64333;50.138;14.332;2023-04-06T09:54:47;5.00;;;4.50;;
75716;SDS011;64333;50.138;14.332;2023-04-06T10:00:08;5.38;;;4.43;;
75716;SDS011;64333;50.138;14.332;2023-04-06T10:02:41;7.55;;;5.35;;
75716;SDS011;64333;50.138;14.332;2023-04-06T10:05:20;6.55;;;4.90;;
75716;SDS011;64333;50.138;14.332;2023-04-06T10:07:47;6.38;;;5.38;;
75716;SDS011;64333;50.138;14.332;2023-04-06T10:10:15;6.43;;;5.82;;
75716;SDS011;64333;50.138;14.332;2023-04-06T10:12:41;5.57;;;5.07;;
75716;SDS011;64333;50.138;14.332;2023-04-06T10:15:07;5.65;;;5.07;;
75716;SDS011;64333;50.138;14.332;2023-04-06T10:17:32;5.90;;;4.93;;
75716;SDS011;64333;50.138;14.332;2023-04-06T10:19:59;6.27;;;5.67;;
75716;SDS011;64333;50.138;14.332;2023-04-06T10:22:29;23.45;;;15.90;;
75716;SDS011;64333;50.138;14.332;2023-04-06T10:24:57;6.95;;;5.38;;
75716;SDS011;64333;50.138;14.332;2023-04-06T10:27:29;6.32;;;4.80;;
75716;SDS011;64333;50.138;14.332;2023-04-06T10:30:00;8.23;;;5.43;;
75716;SDS011;64333;50.138;14.332;2023-04-06T10:32:33;6.00;;;4.90;;
75716;SDS011;64333;50.138;14.332;2023-04-06T10:35:04;5.78;;;4.97;;
75716;SDS011;64333;50.138;14.332;2023-04-06T10:37:45;5.90;;;4.70;;
75716;SDS011;64333;50.138;14.332;2023-04-06T10:40:24;5.53;;;4.63;;
75716;SDS011;64333;50.138;14.332;2023-04-06T10:42:53;4.95;;;4.55;;
75716;SDS011;64333;50.138;14.332;2023-04-06T10:45:19;6.40;;;5.10;;
75716;SDS011;64333;50.138;14.332;2023-04-06T10:47:44;5.07;;;4.53;;
75716;SDS011;64333;50.138;14.332;2023-04-06T10:50:10;6.70;;;4.32;;
75716;SDS011;64333;50.138;14.332;2023-04-06T10:52:37;6.13;;;4.88;;
75716;SDS011;64333;50.138;14.332;2023-04-06T10:55:02;5.10;;;4.70;;
75716;SDS011;64333;50.138;14.332;2023-04-06T10:57:28;4.82;;;4.38;;
75716;SDS011;64333;50.138;14.332;2023-04-06T10:59:54;4.90;;;4.50;;
75716;SDS011;64333;50.138;14.332;2023-04-06T11:02:19;5.18;;;4.68;;
75716;SDS011;64333;50.138;14.332;2023-04-06T11:04:53;4.80;;;3.28;;
75716;SDS011;64333;50.138;14.332;2023-04-06T11:07:22;4.05;;;3.33;;
75716;SDS011;64333;50.138;14.332;2023-04-06T11:09:49;5.30;;;4.00;;
75716;SDS011;64333;50.138;14.332;2023-04-06T11:12:23;4.75;;;3.78;;
75716;SDS011;64333;50.138;14.332;2023-04-06T11:15:07;6.15;;;4.45;;
75716;SDS011;64333;50.138;14.332;2023-04-06T11:17:33;6.60;;;4.75;;
75716;SDS011;64333;50.138;14.332;2023-04-06T11:19:59;5.07;;;3.45;;
75716;SDS011;64333;50.138;14.332;2023-04-06T11:22:25;5.07;;;4.28;;
75716;SDS011;64333;50.138;14.332;2023-04-06T11:24:50;4.63;;;4.22;;
75716;SDS011;64333;50.138;14.332;2023-04-06T11:27:16;5.28;;;4.80;;
75716;SDS011;64333;50.138;14.332;2023-04-06T11:29:42;5.55;;;4.75;;
75716;SDS011;64333;50.138;14.332;2023-04-06T11:32:08;5.28;;;4.78;;
75716;SDS011;64333;50.138;14.332;2023-04-06T11:34:34;4.53;;;4.13;;
75716;SDS011;64333;50.138;14.332;2023-04-06T11:37:02;5.40;;;4.90;;
75716;SDS011;64333;50.138;14.332;2023-04-06T11:39:29;5.45;;;4.95;;
75716;SDS011;64333;50.138;14.332;2023-04-06T11:41:58;6.20;;;5.60;;
75716;SDS011;64333;50.138;14.332;2023-04-06T11:44:35;5.68;;;5.13;;
75716;SDS011;64333;50.138;14.332;2023-04-06T11:47:01;5.65;;;5.15;;
75716;SDS011;64333;50.138;14.332;2023-04-06T11:49:27;6.13;;;5.63;;
75716;SDS011;64333;50.138;14.332;2023-04-06T11:51:53;6.28;;;5.68;;
75716;SDS011;64333;50.138;14.332;2023-04-06T11:54:28;6.32;;;5.82;;
75716;SDS011;64333;50.138;14.332;2023-04-06T11:56:54;5.85;;;5.35;;
75716;SDS011;64333;50.138;14.332;2023-04-06T11:59:20;6.05;;;4.80;;
75716;SDS011;64333;50.138;14.332;2023-04-06T12:01:46;6.22;;;5.63;;
75716;SDS011;64333;50.138;14.332;2023-04-06T12:04:11;5.97;;;5.40;;
75716;SDS011;64333;50.138;14.332;2023-04-06T12:06:37;6.43;;;5.35;;
75716;SDS011;64333;50.138;14.332;2023-04-06T12:09:02;7.27;;;6.03;;
75716;SDS011;64333;50.138;14.332;2023-04-06T12:11:27;5.72;;;5.30;;
75716;SDS011;64333;50.138;14.332;2023-04-06T12:13:53;6.40;;;5.70;;
75716;SDS011;64333;50.138;14.332;2023-04-06T12:16:18;5.75;;;5.15;;
75716;SDS011;64333;50.138;14.332;2023-04-06T12:18:44;6.55;;;5.60;;
75716;SDS011;64333;50.138;14.332;2023-04-06T12:21:09;5.97;;;5.47;;
75716;SDS011;64333;50.138;14.332;2023-04-06T12:23:35;6.03;;;5.53;;
75716;SDS011;64333;50.138;14.332;2023-04-06T12:26:00;6.90;;;6.30;;
75716;SDS011;64333;50.138;14.332;2023-04-06T12:28:26;6.78;;;6.00;;
75716;SDS011;64333;50.138;14.332;2023-04-06T12:30:52;6.10;;;5.60;;
75716;SDS011;64333;50.138;14.332;2023-04-06T12:33:17;5.68;;;5.25;;
75716;SDS011;64333;50.138;14.332;2023-04-06T12:35:43;6.03;;;5.50;;
75716;SDS011;64333;50.138;14.332;2023-04-06T12:38:08;6.38;;;5.80;;
75716;SDS011;64333;50.138;14.332;2023-04-06T12:40:37;7.27;;;5.10;;
75716;SDS011;64333;50.138;14.332;2023-04-06T12:45:28;5.37;;;4.83;;
75716;SDS011;64333;50.138;14.332;2023-04-06T12:47:55;6.38;;;5.88;;
75716;SDS011;64333;50.138;14.332;2023-04-06T12:50:20;6.40;;;5.80;;
75716;SDS011;64333;50.138;14.332;2023-04-06T12:52:46;6.30;;;5.70;;
75716;SDS011;64333;50.138;14.332;2023-04-06T12:55:12;5.55;;;5.10;;
75716;SDS011;64333;50.138;14.332;2023-04-06T12:57:37;5.40;;;4.90;;
75716;SDS011;64333;50.138;14.332;2023-04-06T13:00:02;6.33;;;5.67;;
75716;SDS011;64333;50.138;14.332;2023-04-06T13:02:29;5.72;;;5.15;;
75716;SDS011;64333;50.138;14.332;2023-04-06T13:04:54;6.10;;;5.22;;
75716;SDS011;64333;50.138;14.332;2023-04-06T13:07:20;4.82;;;4.32;;
75716;SDS011;64333;50.138;14.332;2023-04-06T13:09:45;6.63;;;4.93;;
75716;SDS011;64333;50.138;14.332;2023-04-06T13:12:12;5.35;;;4.85;;
75716;SDS011;64333;50.138;14.332;2023-04-06T13:14:37;5.37;;;4.87;;
75716;SDS011;64333;50.138;14.332;2023-04-06T13:17:04;6.72;;;6.10;;
75716;SDS011;64333;50.138;14.332;2023-04-06T13:19:29;8.02;;;7.18;;
75716;SDS011;64333;50.138;14.332;2023-04-06T13:21:56;6.82;;;6.22;;
75716;SDS011;64333;50.138;14.332;2023-04-06T13:24:21;7.60;;;6.83;;
75716;SDS011;64333;50.138;14.332;2023-04-06T13:26:48;6.50;;;6.00;;
75716;SDS011;64333;50.138;14.332;2023-04-06T13:29:13;7.40;;;6.40;;
75716;SDS011;64333;50.138;14.332;2023-04-06T13:31:38;7.80;;;7.00;;
75716;SDS011;64333;50.138;14.332;2023-04-06T13:34:04;8.43;;;7.13;;
75716;SDS011;64333;50.138;14.332;2023-04-06T13:36:29;7.20;;;6.30;;
75716;SDS011;64333;50.138;14.332;2023-04-06T13:38:56;7.43;;;6.78;;
75716;SDS011;64333;50.138;14.332;2023-04-06T13:41:22;6.93;;;6.32;;
75716;SDS011;64333;50.138;14.332;2023-04-06T13:43:48;6.40;;;5.80;;
75716;SDS011;64333;50.138;14.332;2023-04-06T13:46:13;6.95;;;6.10;;
75716;SDS011;64333;50.138;14.332;2023-04-06T13:48:38;6.90;;;6.23;;
75716;SDS011;64333;50.138;14.332;2023-04-06T13:51:10;6.90;;;5.50;;
75716;SDS011;64333;50.138;14.332;2023-04-06T13:53:35;6.70;;;6.10;;
75716;SDS011;64333;50.138;14.332;2023-04-06T13:56:00;6.40;;;5.80;;
75716;SDS011;64333;50.138;14.332;2023-04-06T13:58:25;6.67;;;5.97;;
75716;SDS011;64333;50.138;14.332;2023-04-06T14:00:51;6.50;;;5.90;;
75716;SDS011;64333;50.138;14.332;2023-04-06T14:03:17;5.95;;;5.35;;
75716;SDS011;64333;50.138;14.332;2023-04-06T14:05:42;6.50;;;5.97;;
75716;SDS011;64333;50.138;14.332;2023-04-06T14:08:08;5.10;;;4.60;;
75716;SDS011;64333;50.138;14.332;2023-04-06T14:10:36;6.73;;;6.07;;
75716;SDS011;64333;50.138;14.332;2023-04-06T14:13:01;6.35;;;5.75;;
75716;SDS011;64333;50.138;14.332;2023-04-06T14:15:27;6.40;;;5.90;;
75716;SDS011;64333;50.138;14.332;2023-04-06T14:17:52;7.05;;;6.43;;
75716;SDS011;64333;50.138;14.332;2023-04-06T14:20:18;6.03;;;5.47;;
75716;SDS011;64333;50.138;14.332;2023-04-06T14:22:43;6.63;;;6.07;;
75716;SDS011;64333;50.138;14.332;2023-04-06T14:25:08;6.33;;;5.83;;